Time;durP1;ratioP1;P1;durP2;ratioP2;P2;SDS_P1;SDS_P2;PMS_P1;PMS_P2;Temp;Humidity;BMP_temperature;BMP_pressure;BME280_temperature;BME280_humidity;BME280_pressure;Samples;Min_cycle;Max_cycle;Signal;HPM_P1;HPM_P2
2020/12/11 00:02:05;;;;;;;22.17;11.05;;;;;;;3.48;95.33;97257.38;5091630;28;19919;-76
2020/12/11 00:04:31;;;;;;;15.07;10.55;;;;;;;3.51;95.03;97259.59;5091360;28;20028;-74
2020/12/11 00:06:57;;;;;;;;;;;;;;;3.52;95.28;97256.59;5091711;28;20480;-74
2020/12/11 00:09:23;;;;;;;21.30;11.82;;;;;;;3.41;95.41;97257.69;5091469;28;19912;-73
2020/12/11 00:11:49;;;;;;;21.25;12.98;;;;;;;3.35;95.99;97260.63;5094631;28;20561;-74
2020/12/11 00:14:14;;;;;;;20.55;10.85;;;;;;;3.41;95.52;97259.56;5106658;28;20035;-73
2020/12/11 00:16:39;;;;;;;21.88;11.77;;;;;;;3.32;95.96;97261.16;5109027;28;20085;-75
2020/12/11 00:19:05;;;;;;;21.15;12.45;;;;;;;3.35;95.93;97264.16;5090916;28;20115;-74
2020/12/11 00:21:37;;;;;;;;;;;;;;;3.32;95.87;97267.34;5091313;28;20401;-74
2020/12/11 00:24:02;;;;;;;17.75;10.70;;;;;;;3.33;95.90;97254.66;5090636;28;19912;-74
2020/12/11 00:26:27;;;;;;;18.15;11.93;;;;;;;3.30;96.34;97272.22;5109096;28;20027;-74
2020/12/11 00:28:52;;;;;;;;;;;;;;;3.31;96.49;97268.44;5111207;28;20510;-75
2020/12/11 00:31:23;;;;;;;17.10;10.50;;;;;;;3.31;96.34;97276.56;5110948;28;19912;-74
2020/12/11 00:33:48;;;;;;;21.45;12.02;;;;;;;3.26;96.45;97268.41;5110701;28;20384;-74
2020/12/11 00:36:14;;;;;;;16.20;10.23;;;;;;;3.33;96.59;97270.88;5110940;28;20034;-76
2020/12/11 00:38:39;;;;;;;;;;;;;;;3.27;96.67;97275.44;5111391;28;20027;-75
2020/12/11 00:41:04;;;;;;;18.52;11.00;;;;;;;3.25;96.41;97269.50;5111245;28;19911;-74
2020/12/11 00:43:30;;;;;;;16.88;11.02;;;;;;;3.31;96.44;97257.63;5110932;28;20408;-76
2020/12/11 00:45:55;;;;;;;20.60;11.43;;;;;;;3.40;95.88;97263.34;5106681;28;20027;-74
2020/12/11 00:48:20;;;;;;;15.25;11.10;;;;;;;3.37;95.90;97267.38;5110675;28;20028;-73
2020/12/11 00:50:46;;;;;;;;;;;;;;;3.32;95.63;97261.16;5111831;28;20105;-74
2020/12/11 00:53:11;;;;;;;21.33;13.48;;;;;;;3.33;95.63;97266.28;5109891;28;19948;-74
2020/12/11 00:55:36;;;;;;;;;;;;;;;3.32;95.85;97264.66;5112130;28;20368;-74
2020/12/11 00:58:02;;;;;;;22.13;11.23;;;;;;;3.24;96.29;97263.28;5110381;28;19941;-74
2020/12/11 01:00:27;;;;;;;;;;;;;;;3.23;96.13;97267.06;5111319;28;20399;-74
2020/12/11 01:02:52;;;;;;;17.85;9.95;;;;;;;3.14;96.37;97247.03;5110913;28;19965;-74
2020/12/11 01:05:18;;;;;;;;;;;;;;;3.35;96.24;97264.16;5110913;28;20115;-74
2020/12/11 01:07:43;;;;;;;19.48;11.15;;;;;;;3.41;95.91;97271.19;5110231;28;19916;-75
2020/12/11 01:10:09;;;;;;;18.35;11.10;;;;;;;3.42;96.17;97269.28;5109821;28;20027;-74
2020/12/11 01:12:34;;;;;;;;;;;;;;;3.33;96.08;97270.88;5110915;28;20028;-74
2020/12/11 01:14:59;;;;;;;13.88;10.32;;;;;;;3.23;96.13;97264.34;5110910;28;19970;-74
2020/12/11 01:17:25;;;;;;;;;;;;;;;3.32;96.47;97271.97;5111293;28;20100;-73
2020/12/11 01:19:50;;;;;;;15.52;10.25;;;;;;;3.33;96.73;97273.56;5113844;28;19915;-73
2020/12/11 01:22:15;;;;;;;18.33;10.68;;;;;;;3.30;96.35;97256.00;5115034;28;20023;-73
2020/12/11 01:24:41;;;;;;;18.73;10.32;;;;;;;3.30;96.51;97255.19;5115000;28;20036;-74
2020/12/11 01:27:06;;;;;;;;;;;;;;;3.39;96.51;97265.22;5115362;28;20020;-74
2020/12/11 01:29:31;;;;;;;18.73;11.65;;;;;;;3.20;96.21;97250.56;5113499;28;19922;-73
2020/12/11 01:32:00;;;;;;;17.27;9.50;;;;;;;3.27;96.65;97261.94;5114799;28;20055;-74
2020/12/11 01:34:26;;;;;;;18.90;11.93;;;;;;;3.37;96.41;97253.06;5114888;28;20156;-75
2020/12/11 01:36:51;;;;;;;20.23;12.30;;;;;;;3.38;96.07;97246.56;5114556;28;20501;-74
2020/12/11 01:39:17;;;;;;;19.98;11.73;;;;;;;3.31;96.08;97243.31;5114502;28;20053;-74
2020/12/11 01:41:43;;;;;;;16.35;11.30;;;;;;;3.36;96.21;97256.81;5114971;28;20057;-73
2020/12/11 01:44:12;;;;;;;20.40;11.15;;;;;;;3.32;96.07;97258.47;5114773;28;20055;-74
2020/12/11 01:46:40;;;;;;;15.93;10.35;;;;;;;3.31;95.91;97248.72;5114642;28;20022;-73
2020/12/11 01:49:10;;;;;;;16.48;9.80;;;;;;;3.39;95.94;97259.81;5114315;27;20020;-74
2020/12/11 01:51:36;;;;;;;15.63;9.57;;;;;;;3.43;95.53;97255.50;5114415;28;20026;-74
2020/12/11 01:54:03;;;;;;;21.75;13.20;;;;;;;3.55;95.45;97275.00;5114363;28;20051;-73
2020/12/11 01:56:41;;;;;;;18.55;11.43;;;;;;;3.51;94.93;97267.69;5114515;28;20153;-73
2020/12/11 01:59:12;;;;;;;19.40;11.38;;;;;;;3.45;95.55;97253.34;5114439;27;20115;-74
2020/12/11 02:01:38;;;;;;;14.25;9.40;;;;;;;3.45;95.89;97252.53;5114586;28;20024;-73
2020/12/11 02:04:06;;;;;;;25.50;11.60;;;;;;;3.45;95.41;97255.22;5114491;28;20617;-73
2020/12/11 02:06:33;;;;;;;23.35;10.35;;;;;;;3.47;95.85;97250.38;5115098;28;20023;-73
2020/12/11 02:08:59;;;;;;;20.70;11.75;;;;;;;3.46;95.64;97254.16;5114947;28;20023;-73
2020/12/11 02:11:24;;;;;;;16.95;9.90;;;;;;;3.45;95.86;97252.53;5115171;28;20030;-74
2020/12/11 02:13:50;;;;;;;;;;;;;;;3.42;95.81;97248.47;5115127;28;20112;-73
2020/12/11 02:16:23;;;;;;;16.92;8.73;;;;;;;3.36;96.01;97249.53;5116071;28;19969;-74
2020/12/11 02:18:49;;;;;;;18.23;10.88;;;;;;;3.31;96.52;97248.72;5115915;27;20496;-74
2020/12/11 02:21:15;;;;;;;15.02;10.45;;;;;;;3.33;96.44;97251.94;5115762;28;20023;-74
2020/12/11 02:23:45;;;;;;;18.05;10.57;;;;;;;3.30;96.16;97255.19;5115586;28;20387;-74
2020/12/11 02:26:11;;;;;;;19.38;9.98;;;;;;;3.37;96.49;97250.34;5114971;28;20076;-74
2020/12/11 02:28:37;;;;;;;19.27;11.43;;;;;;;3.35;96.31;97260.63;5113917;28;20028;-74
2020/12/11 02:31:03;;;;;;;14.30;9.75;;;;;;;3.34;96.56;97250.88;5112593;28;20438;-74
2020/12/11 02:33:29;;;;;;;14.43;9.57;;;;;;;3.18;96.63;97236.53;5113462;28;20126;-74
2020/12/11 02:35:55;;;;;;;16.40;9.32;;;;;;;3.30;96.69;97241.69;5114154;28;20449;-74
2020/12/11 02:38:20;;;;;;;;;;;;;;;3.29;96.33;97245.47;5114232;28;20076;-73
2020/12/11 02:40:53;;;;;;;17.60;9.02;;;;;;;3.31;96.88;97240.59;5113934;28;19912;-74
2020/12/11 02:43:19;;;;;;;12.00;8.88;;;;;;;3.28;96.46;97241.16;5113319;28;20547;-74
2020/12/11 02:45:47;;;;;;;14.07;9.73;;;;;;;3.23;96.48;97240.03;5113878;28;20027;-74
2020/12/11 02:48:13;;;;;;;18.25;10.68;;;;;;;3.22;96.77;97226.81;5113717;28;20016;-73
2020/12/11 02:50:39;;;;;;;28.75;11.93;;;;;;;3.06;96.83;97217.84;5113383;27;20068;-74
2020/12/11 02:53:05;;;;;;;16.88;9.70;;;;;;;3.09;97.45;97230.84;5113358;28;20032;-73
2020/12/11 02:55:30;;;;;;;17.55;10.52;;;;;;;3.12;97.49;97222.19;5113942;28;20039;-73
2020/12/11 02:57:56;;;;;;;17.10;11.00;;;;;;;3.16;97.32;97231.38;5114348;28;20388;-73
2020/12/11 03:00:21;;;;;;;16.80;11.35;;;;;;;3.08;97.36;97218.38;5113067;28;20024;-74
2020/12/11 03:02:47;;;;;;;24.70;12.95;;;;;;;3.09;97.25;97209.22;5113317;28;20027;-74
2020/12/11 03:05:12;;;;;;;;;;;;;;;3.18;97.01;97223.81;5113863;28;20050;-73
2020/12/11 03:07:37;;;;;;;16.80;9.85;;;;;;;3.11;97.04;97217.03;5113517;27;19919;-73
2020/12/11 03:10:03;;;;;;;18.63;11.68;;;;;;;3.06;97.35;97219.75;5113009;28;20114;-73
2020/12/11 03:12:28;;;;;;;;;;;;;;;3.06;97.60;97217.84;5113323;28;20465;-73
2020/12/11 03:14:54;;;;;;;14.68;9.60;;;;;;;3.15;97.52;97205.44;5112869;28;21446;-73
2020/12/11 03:17:19;;;;;;;17.38;8.52;;;;;;;3.26;96.68;97208.19;5112910;28;20557;-73
2020/12/11 03:19:44;;;;;;;;;;;;;;;3.33;96.78;97211.41;5113461;28;20019;-73
2020/12/11 03:22:10;;;;;;;17.20;8.98;;;;;;;3.23;96.98;97215.72;5112808;28;20386;-74
2020/12/11 03:24:35;;;;;;;;;;;;;;;3.15;97.22;97212.75;5113119;28;20034;-74
2020/12/11 03:27:00;;;;;;;13.88;8.90;;;;;;;3.19;97.13;97220.06;5112765;28;19911;-73
2020/12/11 03:29:26;;;;;;;;;;;;;;;3.17;97.51;97219.50;5112845;28;20084;-74
2020/12/11 03:31:51;;;;;;;12.13;8.95;;;;;;;3.20;97.54;97221.66;5112595;28;19912;-73
2020/12/11 03:34:16;;;;;;;15.32;8.80;;;;;;;3.15;97.63;97221.66;5112664;28;20019;-74
2020/12/11 03:36:42;;;;;;;;;;;;;;;3.20;97.58;97220.84;5113487;28;20024;-73
2020/12/11 03:39:07;;;;;;;17.52;9.25;;;;;;;3.18;97.55;97223.81;5112536;28;19966;-74
2020/12/11 03:41:32;;;;;;;;;;;;;;;3.09;98.00;97216.50;5112502;28;20032;-74
2020/12/11 03:43:58;;;;;;;20.23;9.35;;;;;;;3.05;98.46;97218.09;5112255;28;19923;-73
2020/12/11 03:46:23;;;;;;;;;;;;;;;2.98;98.87;97218.34;5112864;28;20031;-74
2020/12/11 03:48:50;;;;;;;17.58;9.23;;;;;;;2.95;99.37;97220.75;5112243;28;20369;-73
2020/12/11 03:51:20;;;;;;;16.35;10.98;;;;;;;2.91;99.70;97212.41;5112339;28;20388;-73
2020/12/11 03:53:46;;;;;;;16.20;10.32;;;;;;;2.87;99.91;97205.91;5112318;28;20031;-74
2020/12/11 03:56:13;;;;;;;12.85;8.73;;;;;;;2.87;100.00;97208.59;5112206;28;20024;-75
2020/12/11 03:58:38;;;;;;;22.08;13.18;;;;;;;2.95;100.00;97216.19;5111994;28;20024;-73
2020/12/11 04:01:04;;;;;;;21.15;9.68;;;;;;;2.91;100.00;97209.72;5111810;28;20055;-74
2020/12/11 04:03:29;;;;;;;;;;;;;;;2.96;100.00;97207.00;5112423;28;20077;-73
2020/12/11 04:05:54;;;;;;;14.73;10.00;;;;;;;2.96;100.00;97206.19;5112188;28;19946;-74
2020/12/11 04:08:20;;;;;;;;;;;;;;;2.92;100.00;97203.22;5092295;28;20028;-74
2020/12/11 04:10:45;;;;;;;16.75;9.50;;;;;;;3.02;100.00;97202.44;5091617;28;19916;-74
2020/12/11 04:13:10;;;;;;;;;;;;;;;3.02;100.00;97214.06;5091996;28;20423;-74
2020/12/11 04:15:36;;;;;;;17.10;10.60;;;;;;;3.10;100.00;97213.53;5091335;28;19912;-74
2020/12/11 04:18:01;;;;;;;;;;;;;;;3.13;100.00;97218.41;5092096;28;20549;-74
2020/12/11 04:20:26;;;;;;;15.18;9.77;;;;;;;3.07;100.00;97222.16;5091444;28;19911;-73
2020/12/11 04:22:52;;;;;;;18.83;10.45;;;;;;;3.09;100.00;97217.31;5091417;28;20024;-74
2020/12/11 04:25:17;;;;;;;;;;;;;;;2.96;100.00;97223.22;5091761;28;20114;-74
2020/12/11 04:27:42;;;;;;;15.32;9.90;;;;;;;2.96;100.00;97217.81;5091332;28;19912;-74
2020/12/11 04:30:08;;;;;;;;;;;;;;;3.07;100.00;97224.06;5091485;28;20085;-73
2020/12/11 04:32:33;;;;;;;16.60;9.98;;;;;;;3.04;100.00;97211.88;5091108;28;19912;-73
2020/12/11 04:34:58;;;;;;;;;;;;;;;3.05;100.00;97210.81;5091553;28;20038;-74
2020/12/11 04:37:24;;;;;;;18.30;9.85;;;;;;;2.93;100.00;97202.16;5091468;28;19912;-74
2020/12/11 04:39:49;;;;;;;17.15;9.95;;;;;;;3.00;100.00;97197.31;5091302;28;20024;-74
2020/12/11 04:42:15;;;;;;;;;;;;;;;2.96;100.00;97196.22;5091218;28;20031;-74
2020/12/11 04:44:41;;;;;;;15.88;8.77;;;;;;;2.96;100.00;97207.00;5091048;28;19916;-74
2020/12/11 04:47:07;;;;;;;20.60;11.95;;;;;;;2.90;100.00;97191.06;5091183;28;20084;-74
2020/12/11 04:49:33;;;;;;;;;;;;;;;3.04;100.00;97206.47;5091599;28;20040;-73
2020/12/11 04:52:04;;;;;;;14.55;8.90;;;;;;;3.19;100.00;97205.72;5091046;28;19912;-74
2020/12/11 04:54:36;;;;;;;13.57;9.32;;;;;;;3.12;100.00;97205.16;5090681;28;20393;-73
2020/12/11 04:57:02;;;;;;;14.68;9.90;;;;;;;3.13;100.00;97202.19;5092724;28;20028;-74
2020/12/11 04:59:27;;;;;;;20.00;10.35;;;;;;;3.02;100.00;97194.31;5091123;28;20535;-74
2020/12/11 05:01:55;;;;;;;16.55;10.13;;;;;;;2.91;100.00;97187.28;5090832;28;20028;-73
2020/12/11 05:04:23;;;;;;;21.00;10.07;;;;;;;3.02;100.00;97195.16;5091070;28;20028;-74
2020/12/11 05:06:48;;;;;;;18.65;9.80;;;;;;;3.03;100.00;97185.97;5091261;28;20485;-74
2020/12/11 05:09:17;;;;;;;15.05;9.95;;;;;;;3.13;100.00;97212.22;5090521;28;20032;-73
2020/12/11 05:11:44;;;;;;;12.65;7.93;;;;;;;3.06;100.00;97212.44;5090540;28;20028;-75
2020/12/11 05:14:30;;;;;;;13.75;9.38;;;;;;;2.97;100.00;97205.13;5090708;28;20024;-73
2020/12/11 05:16:57;;;;;;;16.83;8.90;;;;;;;3.00;100.00;97213.50;5090621;28;20517;-73
2020/12/11 05:19:23;;;;;;;15.68;9.05;;;;;;;2.99;100.00;97222.69;5090794;28;20028;-73
2020/12/11 05:21:48;;;;;;;21.33;10.43;;;;;;;3.11;100.00;97219.75;5101271;28;20506;-73
2020/12/11 05:24:14;;;;;;;14.70;9.30;;;;;;;3.17;100.00;97218.69;5090202;28;20024;-73
2020/12/11 05:26:39;;;;;;;;;;;;;;;3.26;100.00;97221.69;5097837;28;20026;-74
2020/12/11 05:29:05;;;;;;;16.30;9.55;;;;;;;3.34;100.00;97231.97;5110651;28;20418;-75
2020/12/11 05:31:30;;;;;;;13.30;8.98;;;;;;;3.18;100.00;97225.72;5110577;28;20024;-74
2020/12/11 05:34:09;;;;;;;22.35;9.93;;;;;;;3.29;100.00;97229.28;5110601;28;20379;-75
2020/12/11 05:36:48;;;;;;;19.55;9.70;;;;;;;3.32;100.00;97231.44;5110730;28;20365;-74
2020/12/11 05:39:31;;;;;;;15.38;8.93;;;;;;;3.20;100.00;97227.06;5099824;28;20046;-74
2020/12/11 05:41:58;;;;;;;14.02;9.07;;;;;;;3.21;100.00;97230.59;5090120;28;20119;-74
2020/12/11 05:44:24;;;;;;;18.77;10.70;;;;;;;3.25;100.00;97237.09;5089989;28;20044;-74
2020/12/11 05:46:50;;;;;;;20.23;9.23;;;;;;;3.13;100.00;97229.19;5091299;28;20020;-74
2020/12/11 05:49:31;;;;;;;16.77;11.60;;;;;;;3.01;100.00;97225.91;5089697;28;20939;-74
2020/12/11 05:52:16;;;;;;;18.35;10.57;;;;;;;3.11;100.00;97228.66;5089891;28;20111;-74
2020/12/11 05:54:46;;;;;;;15.48;10.40;;;;;;;3.04;100.00;97225.41;5088624;28;20427;-73
2020/12/11 05:57:14;;;;;;;18.50;10.55;;;;;;;3.00;100.00;97216.22;5089962;28;20051;-74
2020/12/11 05:59:40;;;;;;;20.70;10.65;;;;;;;3.01;100.00;97225.09;5089600;28;20030;-74
2020/12/11 06:02:06;;;;;;;14.38;9.73;;;;;;;2.91;100.00;97220.50;5090756;28;20110;-74
2020/12/11 06:04:31;;;;;;;17.63;10.27;;;;;;;2.92;100.00;97222.13;5100876;28;21485;-75
2020/12/11 06:06:58;;;;;;;17.77;9.93;;;;;;;3.03;100.00;97229.19;5113791;28;20028;-74
2020/12/11 06:09:35;;;;;;;19.48;9.98;;;;;;;3.04;100.00;97229.97;5100874;28;20028;-76
2020/12/11 06:12:03;;;;;;;18.45;9.93;;;;;;;2.98;100.00;97221.06;5093632;28;20050;-79
2020/12/11 06:14:40;;;;;;;16.02;10.77;;;;;;;2.97;100.00;97224.84;5110503;28;20473;-73
2020/12/11 06:17:08;;;;;;;14.27;9.68;;;;;;;2.90;100.00;97224.28;5091803;28;20028;-73
2020/12/11 06:19:40;;;;;;;14.18;10.00;;;;;;;3.07;100.00;97234.88;5106400;28;20531;-73
2020/12/11 06:22:07;;;;;;;14.63;10.85;;;;;;;3.08;100.00;97244.59;5111506;28;20503;-74
2020/12/11 06:24:34;;;;;;;17.02;9.32;;;;;;;3.01;100.00;97236.72;5102045;28;20499;-73
2020/12/11 06:27:01;;;;;;;13.50;8.75;;;;;;;2.97;100.00;97230.25;5091834;28;20114;-76
2020/12/11 06:29:31;;;;;;;15.68;8.55;;;;;;;3.02;100.00;97232.97;5094273;28;20035;-73
2020/12/11 06:31:57;;;;;;;13.38;8.88;;;;;;;3.05;100.00;97221.63;5087989;28;20016;-73
2020/12/11 06:34:27;;;;;;;14.35;9.07;;;;;;;3.08;100.00;97220.28;5095063;28;20035;-74
2020/12/11 06:36:54;;;;;;;12.65;8.68;;;;;;;2.94;100.00;97228.09;5099115;28;20032;-75
2020/12/11 06:39:42;;;;;;;14.65;9.55;;;;;;;3.00;100.00;97229.72;5090870;28;20035;-74
2020/12/11 06:42:09;;;;;;;11.25;8.15;;;;;;;2.94;100.00;97230.78;5104578;28;20102;-74
2020/12/11 06:44:35;;;;;;;12.88;8.32;;;;;;;2.98;100.00;97223.75;5106492;28;20048;-73
2020/12/11 06:47:05;;;;;;;13.02;8.40;;;;;;;3.07;100.00;97234.88;5091580;28;20015;-74
2020/12/11 06:49:31;;;;;;;14.30;7.82;;;;;;;3.22;100.00;97234.91;5104752;27;20419;-74
2020/12/11 06:51:56;;;;;;;11.23;9.27;;;;;;;3.03;100.00;97245.41;5094338;28;20031;-74
2020/12/11 06:54:21;;;;;;;;;;;;;;;2.90;100.00;97235.06;5103182;28;20094;-74
2020/12/11 06:56:52;;;;;;;12.15;7.43;;;;;;;2.93;100.00;97237.25;5112501;28;19982;-73
2020/12/11 06:59:28;;;;;;;13.30;7.85;;;;;;;2.97;100.00;97245.63;5112519;28;20026;-73
2020/12/11 07:01:55;;;;;;;9.88;8.38;;;;;;;2.92;100.00;97248.31;5104132;28;20028;-73
2020/12/11 07:04:22;;;;;;;12.18;7.88;;;;;;;2.99;100.00;97249.69;5091679;28;20040;-73
2020/12/11 07:06:52;;;;;;;12.27;6.85;;;;;;;2.98;100.00;97248.06;5091532;28;20016;-73
2020/12/11 07:09:19;;;;;;;11.70;7.15;;;;;;;3.07;100.00;97251.09;5091389;28;20567;-73
2020/12/11 07:11:46;;;;;;;8.85;6.65;;;;;;;3.09;100.00;97263.25;5099027;28;20037;-74
2020/12/11 07:14:12;;;;;;;17.38;9.13;;;;;;;2.94;100.00;97241.59;5110266;27;20020;-75
2020/12/11 07:16:41;;;;;;;20.52;9.60;;;;;;;3.00;100.00;97250.50;5110377;28;20024;-74
2020/12/11 07:19:07;;;;;;;14.57;8.13;;;;;;;2.98;100.00;97242.66;5111764;28;20020;-73
2020/12/11 07:21:34;;;;;;;12.40;8.73;;;;;;;2.93;100.00;97250.75;5111612;28;20031;-72
2020/12/11 07:24:03;;;;;;;39.03;20.00;;;;;;;2.88;100.00;97242.63;5111388;28;20476;-72
2020/12/11 07:26:29;;;;;;;20.85;12.93;;;;;;;2.92;100.00;97235.63;5104462;28;20032;-71
2020/12/11 07:29:05;;;;;;;22.67;16.77;;;;;;;2.98;100.00;97237.25;5099622;28;20023;-73
2020/12/11 07:31:39;;;;;;;14.50;9.93;;;;;;;3.07;100.00;97251.09;5103700;28;20036;-73
2020/12/11 07:34:22;;;;;;;13.20;8.88;;;;;;;3.22;100.00;97253.84;5091039;28;20069;-73
2020/12/11 07:36:54;;;;;;;22.20;12.35;;;;;;;3.26;100.00;97262.22;5090720;28;20073;-73
2020/12/11 07:39:20;;;;;;;16.35;9.73;;;;;;;2.98;100.00;97237.25;5091180;28;20028;-73
2020/12/11 07:41:47;;;;;;;19.48;8.73;;;;;;;2.80;100.00;97229.63;5090886;28;20784;-73
2020/12/11 07:44:22;;;;;;;15.75;9.07;;;;;;;2.90;100.00;97248.59;5110416;28;20515;-73
2020/12/11 07:46:47;;;;;;;12.15;8.68;;;;;;;2.78;100.00;97242.59;5109756;28;20031;-73
2020/12/11 07:49:12;;;;;;;15.75;8.85;;;;;;;2.87;100.00;97243.72;5110968;28;20030;-74
2020/12/11 07:51:49;;;;;;;21.35;10.32;;;;;;;2.92;100.00;97238.31;5110867;28;20066;-74
2020/12/11 07:54:14;;;;;;;11.80;7.53;;;;;;;2.91;100.00;97228.59;5108425;28;20122;-74
2020/12/11 07:56:41;;;;;;;13.95;7.78;;;;;;;2.96;100.00;97228.63;5090626;28;20153;-72
2020/12/11 07:59:10;;;;;;;13.95;8.05;;;;;;;3.05;100.00;97232.44;5090560;28;20028;-72
2020/12/11 08:01:37;;;;;;;13.55;7.88;;;;;;;3.11;100.00;97246.75;5090424;28;20024;-74
2020/12/11 08:04:02;;;;;;;13.38;7.80;;;;;;;3.09;100.00;97244.34;5090572;28;20055;-72
2020/12/11 08:06:28;;;;;;;13.27;8.65;;;;;;;3.18;100.00;97258.94;5090517;28;20564;-73
2020/12/11 08:08:53;;;;;;;14.60;8.45;;;;;;;3.19;100.00;97254.38;5105062;28;20076;-73
2020/12/11 08:11:22;;;;;;;;;;;;;;;3.18;100.00;97258.94;5111225;28;20345;-73
2020/12/11 08:14:04;;;;;;;14.13;7.85;;;;;;;3.15;100.00;97256.78;5109234;28;19938;-73
2020/12/11 08:16:30;;;;;;;12.07;8.45;;;;;;;3.11;100.00;97244.88;5092779;28;20040;-73
2020/12/11 08:19:00;;;;;;;13.65;9.52;;;;;;;3.19;100.00;97254.38;5090236;28;20123;-72
2020/12/11 08:21:33;;;;;;;18.08;10.95;;;;;;;3.34;100.00;97256.28;5089956;28;20523;-74
2020/12/11 08:23:59;;;;;;;18.92;12.90;;;;;;;3.28;99.97;97251.94;5090205;28;20800;-74
2020/12/11 08:26:26;;;;;;;16.10;10.60;;;;;;;3.32;99.59;97253.84;5107325;28;20015;-73
2020/12/11 08:29:06;;;;;;;17.90;9.90;;;;;;;3.23;99.88;97256.25;5110296;28;20153;-79
2020/12/11 08:31:40;;;;;;;13.73;9.27;;;;;;;3.22;99.75;97254.66;5110384;28;20833;-74
2020/12/11 08:34:12;;;;;;;17.05;10.68;;;;;;;3.16;99.93;97242.19;5110493;28;20095;-73
2020/12/11 08:36:40;;;;;;;16.25;11.45;;;;;;;3.22;100.00;97249.25;5110176;28;20027;-73
2020/12/11 08:39:09;;;;;;;18.95;10.20;;;;;;;3.38;99.93;97246.56;5110810;28;20463;-74
2020/12/11 08:41:42;;;;;;;20.63;10.13;;;;;;;3.53;99.41;97250.13;5110136;28;20024;-73
2020/12/11 08:44:29;;;;;;;17.55;10.10;;;;;;;3.52;99.51;97244.97;5108640;28;20169;-73
2020/12/11 08:49:49;;;;;;;19.17;9.35;;;;;;;3.67;98.75;97261.22;5110021;28;20040;-74
2020/12/11 08:52:15;;;;;;;13.65;8.07;;;;;;;3.72;98.15;97239.59;5109946;28;20030;-74
2020/12/11 08:54:40;;;;;;;12.57;7.70;;;;;;;3.66;98.02;97249.63;5098763;28;20036;-73
2020/12/11 08:57:06;;;;;;;11.20;8.13;;;;;;;3.55;98.71;97239.03;5089601;28;20073;-73
2020/12/11 08:59:32;;;;;;;13.85;7.50;;;;;;;3.62;98.97;97242.28;5088516;28;20032;-73
2020/12/11 09:01:59;;;;;;;14.93;9.38;;;;;;;3.60;99.00;97244.47;5089698;28;20020;-73
2020/12/11 09:04:25;;;;;;;9.95;7.28;;;;;;;3.58;98.95;97252.00;5089593;28;20031;-74
2020/12/11 09:06:50;;;;;;;20.58;9.68;;;;;;;3.61;99.32;97244.19;5092618;28;20386;-73
2020/12/11 09:09:16;;;;;;;18.48;8.50;;;;;;;3.65;98.53;97241.75;5089383;28;20044;-72
2020/12/11 09:11:41;;;;;;;;;;;;;;;3.85;98.60;97247.19;5090711;28;20046;-74
2020/12/11 09:14:06;;;;;;;15.30;9.65;;;;;;;3.80;97.61;97244.47;5090783;28;20369;-73
2020/12/11 09:16:31;;;;;;;;;;;;;;;3.77;97.87;97245.00;5089792;28;20028;-73
2020/12/11 09:18:57;;;;;;;12.38;7.85;;;;;;;3.75;97.93;97241.78;5088226;28;20475;-72
2020/12/11 09:21:22;;;;;;;17.17;9.30;;;;;;;3.90;97.48;97222.84;5093004;28;20027;-73
2020/12/11 09:23:49;;;;;;;15.15;9.07;;;;;;;4.15;97.33;97235.53;5087587;28;20020;-73
2020/12/11 09:26:14;;;;;;;14.52;9.95;;;;;;;4.13;95.59;97232.31;5089326;28;20032;-72
2020/12/11 09:28:43;;;;;;;14.50;9.02;;;;;;;4.10;95.96;97227.44;5092707;28;20032;-72
2020/12/11 09:31:09;;;;;;;14.70;9.02;;;;;;;4.06;96.17;97234.47;5090841;28;20186;-73
2020/12/11 09:33:39;;;;;;;14.20;9.32;;;;;;;3.99;96.49;97236.63;5089947;28;20103;-76
2020/12/11 09:36:04;;;;;;;16.65;10.55;;;;;;;3.85;96.46;97230.97;5091484;28;20110;-72
2020/12/11 09:38:30;;;;;;;16.33;9.75;;;;;;;3.86;96.86;97221.75;5091289;28;20102;-72
2020/12/11 09:41:01;;;;;;;18.92;10.82;;;;;;;3.83;96.62;97219.59;5092470;28;20191;-72
2020/12/11 09:49:07;;;;;;;20.00;12.07;;;;;;;3.83;97.59;97210.66;5093020;28;20119;-71
2020/12/11 09:51:59;;;;;;;24.80;13.48;;;;;;;3.85;97.31;97195.00;5093071;28;20028;-73
2020/12/11 09:54:32;;;;;;;16.25;10.30;;;;;;;3.92;97.34;97199.03;5093153;28;20024;-73
2020/12/11 09:56:58;;;;;;;17.08;11.05;;;;;;;3.97;97.69;97184.69;5092771;28;20112;-72
2020/12/11 09:59:30;;;;;;;15.98;10.38;;;;;;;3.96;97.38;97178.47;5092780;28;20451;-72
2020/12/11 10:04:24;;;;;;;18.85;10.43;;;;;;;3.99;96.90;97159.00;5092920;28;20038;-73
2020/12/11 10:06:50;;;;;;;17.63;11.10;;;;;;;3.99;96.06;97153.56;5093205;28;20028;-72
2020/12/11 10:09:15;;;;;;;15.73;9.77;;;;;;;4.08;95.33;97156.53;5092905;28;20031;-72
2020/12/11 10:11:41;;;;;;;14.85;9.75;;;;;;;4.06;95.69;97150.59;5092664;28;20028;-73
2020/12/11 10:16:52;;;;;;;18.52;11.48;;;;;;;3.99;95.94;97145.47;5111956;28;20030;-72
2020/12/11 10:19:19;;;;;;;18.65;11.68;;;;;;;3.98;94.94;97138.41;5111988;28;20024;-72
2020/12/11 10:21:52;;;;;;;14.65;9.82;;;;;;;4.01;95.19;97137.88;5112355;28;20028;-80
2020/12/11 10:24:18;;;;;;;16.65;10.13;;;;;;;4.08;95.51;97138.41;5112061;28;20110;-75
2020/12/11 10:26:44;;;;;;;16.65;8.85;;;;;;;3.97;95.12;97119.78;5100505;28;20035;-72
2020/12/11 10:29:10;;;;;;;12.23;7.68;;;;;;;3.99;94.99;97118.41;5102026;28;20455;-75
2020/12/11 10:31:36;;;;;;;13.25;8.90;;;;;;;3.98;95.74;97124.09;5100058;28;20034;-72
2020/12/11 10:34:02;;;;;;;17.30;8.63;;;;;;;4.04;94.49;97112.97;5101730;28;20030;-72
2020/12/11 10:36:31;;;;;;;10.05;6.65;;;;;;;4.04;93.38;97112.19;5099564;28;20034;-72
2020/12/11 10:38:57;;;;;;;12.45;8.02;;;;;;;4.03;93.06;97107.84;5100116;28;20028;-73
2020/12/11 10:41:23;;;;;;;14.10;7.82;;;;;;;4.06;93.13;97118.13;5101385;28;20024;-75
2020/12/11 10:43:50;;;;;;;13.43;7.35;;;;;;;4.14;92.35;97104.84;5101567;28;20077;-72
2020/12/11 10:46:16;;;;;;;9.63;6.13;;;;;;;4.05;92.03;97097.56;5099595;28;20032;-76
2020/12/11 10:48:41;;;;;;;10.57;7.60;;;;;;;4.03;92.76;97100.56;5095433;28;20032;-74
2020/12/11 10:51:14;;;;;;;12.50;6.90;;;;;;;4.06;92.45;97091.88;5090840;28;20039;-74
2020/12/11 10:53:42;;;;;;;11.45;7.20;;;;;;;4.01;92.50;97089.19;5092072;28;20035;-72
2020/12/11 10:56:09;;;;;;;13.32;6.07;;;;;;;4.01;92.98;97085.69;5091745;28;20073;-74
2020/12/11 10:58:35;;;;;;;17.70;7.93;;;;;;;4.10;92.36;97089.44;5091914;28;20047;-71
2020/12/11 11:01:10;;;;;;;9.40;5.95;;;;;;;4.08;92.56;97083.47;5091927;28;20485;-72
2020/12/11 11:03:36;;;;;;;17.77;9.35;;;;;;;4.02;92.39;97092.69;5092020;28;20036;-72
2020/12/11 11:06:53;;;;;;;15.43;7.70;;;;;;;4.07;93.07;97093.50;5100103;28;20035;-73
2020/12/11 11:11:40;;;;;;;16.10;8.20;;;;;;;4.06;92.89;97083.78;5111859;28;20031;-70
2020/12/11 11:19:50;;;;;;;9.63;6.30;;;;;;;4.11;91.35;97069.41;5091282;28;20037;-70
2020/12/11 11:22:39;;;;;;;9.00;5.75;;;;;;;4.20;92.02;97065.84;5091112;28;20550;-70
2020/12/11 11:29:55;;;;;;;;;;;;;;;4.05;92.78;97055.09;5091563;28;20028;-70
2020/12/11 11:32:20;;;;;;;11.32;6.53;;;;;;;4.05;92.79;97052.38;5090609;28;19912;-70
2020/12/11 11:34:46;;;;;;;;;;;;;;;4.31;92.69;97045.78;5091064;28;20100;-70
2020/12/11 11:37:13;;;;;;;12.45;6.85;;;;;;;4.29;92.63;97044.47;5090779;28;19916;-70
2020/12/11 11:39:38;;;;;;;11.88;7.45;;;;;;;4.22;90.55;97047.47;5091347;28;20020;-70
2020/12/11 11:42:04;;;;;;;11.32;5.72;;;;;;;4.09;90.31;97039.94;5090899;28;20020;-75
2020/12/11 11:47:13;;;;;;;18.73;10.32;;;;;;;4.08;90.43;97041.00;5090665;28;20049;-71
2020/12/11 11:49:59;;;;;;;11.55;6.93;;;;;;;4.16;90.18;97035.03;5090421;28;20635;-71
2020/12/11 11:52:37;;;;;;;10.60;6.05;;;;;;;4.21;90.55;97024.19;5091233;28;20048;-71
2020/12/11 11:55:10;;;;;;;7.25;4.65;;;;;;;4.28;89.76;97030.09;5091460;28;20028;-71
2020/12/11 11:57:35;;;;;;;8.77;5.40;;;;;;;4.36;89.88;97025.19;5091326;28;20039;-71
2020/12/11 12:00:03;;;;;;;11.57;6.05;;;;;;;4.40;88.30;97020.84;5091342;28;20024;-71
2020/12/11 12:02:28;;;;;;;9.38;4.88;;;;;;;4.33;88.48;97016.53;5095986;28;20015;-70
2020/12/11 12:04:53;;;;;;;10.13;4.78;;;;;;;4.41;88.78;97022.47;5103956;28;20032;-71
2020/12/11 12:07:19;;;;;;;10.73;5.93;;;;;;;4.37;89.04;97015.97;5110661;28;20373;-70
2020/12/11 12:09:45;;;;;;;7.15;4.38;;;;;;;4.30;89.02;97008.97;5111602;28;20072;-71